createdAt,value
2023-02-23T00:02:06.783Z,7.80
2023-02-23T00:04:35.286Z,7.70
2023-02-23T00:07:03.037Z,7.80
2023-02-23T00:09:35.984Z,7.80
2023-02-23T00:12:08.406Z,7.70
2023-02-23T00:14:38.616Z,7.70
2023-02-23T00:17:14.537Z,7.70
2023-02-23T00:19:43.921Z,7.70
2023-02-23T00:22:12.030Z,7.70
2023-02-23T00:24:40.702Z,7.60
2023-02-23T00:27:07.957Z,7.60
2023-02-23T00:29:39.645Z,7.60
2023-02-23T00:32:07.468Z,7.60
2023-02-23T00:34:36.897Z,7.60
2023-02-23T00:37:04.586Z,7.60
2023-02-23T00:39:31.910Z,7.60
2023-02-23T00:42:03.226Z,7.60
2023-02-23T00:44:31.994Z,7.50
2023-02-23T00:46:59.130Z,7.50
2023-02-23T00:49:26.939Z,7.50
2023-02-23T00:51:54.340Z,7.50
2023-02-23T00:54:22.288Z,7.50
2023-02-23T00:56:50.146Z,7.40
2023-02-23T00:59:17.711Z,7.40
2023-02-23T01:01:45.192Z,7.50
2023-02-23T01:04:13.426Z,7.40
2023-02-23T01:06:42.234Z,7.40
2023-02-23T01:09:16.169Z,7.40
2023-02-23T01:11:46.995Z,7.40
2023-02-23T01:14:15.215Z,7.40
2023-02-23T01:16:42.435Z,7.40
2023-02-23T01:19:11.048Z,7.30
2023-02-23T01:21:42.247Z,7.20
2023-02-23T01:24:10.048Z,7.30
2023-02-23T01:26:39.983Z,7.20
2023-02-23T01:29:15.188Z,7.30
2023-02-23T01:31:45.196Z,7.20
2023-02-23T01:34:14.473Z,7.30
2023-02-23T01:36:43.950Z,7.20
2023-02-23T01:39:17.421Z,7.20
2023-02-23T01:41:45.464Z,7.20
2023-02-23T01:44:12.820Z,7.20
2023-02-23T01:46:47.571Z,7.10
2023-02-23T01:49:28.485Z,7.20
2023-02-23T01:51:59.225Z,7.90
2023-02-23T01:54:32.038Z,7.20
2023-02-23T01:57:01.791Z,7.20
2023-02-23T01:59:41.758Z,7.20
2023-02-23T02:02:09.527Z,7.20
2023-02-23T02:04:46.576Z,7.20
2023-02-23T02:07:16.663Z,6.60
2023-02-23T02:10:07.229Z,7.30
2023-02-23T02:12:34.556Z,7.20
2023-02-23T02:15:04.999Z,7.20
2023-02-23T02:17:51.462Z,7.10
2023-02-23T02:20:32.842Z,7.20
2023-02-23T02:23:10.720Z,7.10
2023-02-23T02:25:38.593Z,7.10
2023-02-23T02:28:24.006Z,7.10
2023-02-23T02:31:03.490Z,7.10
2023-02-23T02:33:58.417Z,7.10
2023-02-23T02:37:14.676Z,7.20
2023-02-23T02:40:15.152Z,7.10
2023-02-23T02:43:12.581Z,7.10
2023-02-23T02:46:13.318Z,7.00
2023-02-23T02:48:45.338Z,7.00
2023-02-23T02:51:28.705Z,7.00
2023-02-23T02:54:12.259Z,7.10
2023-02-23T02:56:43.195Z,7.00
2023-02-23T02:59:32.814Z,6.90
2023-02-23T03:02:18.617Z,6.90
2023-02-23T03:05:04.807Z,6.90
2023-02-23T03:07:54.080Z,7.00
2023-02-23T03:11:03.290Z,6.90
2023-02-23T03:14:30.349Z,6.90
2023-02-23T03:17:41.483Z,7.00
2023-02-23T03:20:36.198Z,7.00
2023-02-23T03:23:42.331Z,6.90
2023-02-23T03:26:44.499Z,6.90
2023-02-23T03:29:57.799Z,6.90
2023-02-23T03:33:02.423Z,6.90
2023-02-23T03:36:07.471Z,6.90
2023-02-23T03:39:19.955Z,6.80
2023-02-23T03:42:08.698Z,6.80
2023-02-23T03:45:03.874Z,6.80
2023-02-23T03:47:55.416Z,6.80
2023-02-23T03:50:59.260Z,6.80
2023-02-23T03:54:02.800Z,6.80
2023-02-23T03:56:52.626Z,6.70
2023-02-23T03:59:44.818Z,6.80
2023-02-23T04:02:33.457Z,6.70
2023-02-23T04:05:24.134Z,6.70
2023-02-23T04:08:12.138Z,6.70
2023-02-23T04:11:07.207Z,6.80
2023-02-23T04:13:37.773Z,6.80
2023-02-23T04:16:06.570Z,6.80
2023-02-23T04:18:36.928Z,6.80
2023-02-23T04:21:05.355Z,6.70
2023-02-23T04:23:33.209Z,6.80
2023-02-23T04:26:00.254Z,6.80
2023-02-23T04:28:29.314Z,6.80
2023-02-23T04:30:56.539Z,6.70
2023-02-23T04:33:25.686Z,6.80
2023-02-23T04:35:54.207Z,6.80
2023-02-23T04:38:22.090Z,6.80
2023-02-23T04:40:49.401Z,6.90
2023-02-23T04:43:16.728Z,6.80
2023-02-23T04:45:45.607Z,6.80
2023-02-23T04:48:12.770Z,6.40
2023-02-23T04:50:40.222Z,6.80
2023-02-23T04:53:10.563Z,6.70
2023-02-23T04:55:38.118Z,6.70
2023-02-23T04:58:05.399Z,6.70
2023-02-23T05:00:34.251Z,6.70
2023-02-23T05:03:01.515Z,6.70
2023-02-23T05:05:28.827Z,6.70
2023-02-23T05:07:56.485Z,6.70
2023-02-23T05:10:24.227Z,6.90
2023-02-23T05:12:51.725Z,6.90
2023-02-23T05:15:18.894Z,6.70
2023-02-23T05:17:46.279Z,6.70
2023-02-23T05:20:14.493Z,6.70
2023-02-23T05:22:42.873Z,6.60
2023-02-23T05:25:10.441Z,6.80
2023-02-23T05:27:37.789Z,6.70
2023-02-23T05:30:07.942Z,6.70
2023-02-23T05:32:35.341Z,6.60
2023-02-23T05:35:03.183Z,6.70
2023-02-23T05:37:33.513Z,6.70
2023-02-23T05:40:00.695Z,6.70
2023-02-23T05:42:27.763Z,6.70
2023-02-23T05:44:55.021Z,6.70
2023-02-23T05:47:22.079Z,6.70
2023-02-23T05:49:49.203Z,6.70
2023-02-23T05:52:16.267Z,6.80
2023-02-23T05:54:43.487Z,6.80
2023-02-23T05:57:10.536Z,6.80
2023-02-23T05:59:37.645Z,6.80
2023-02-23T06:02:06.234Z,6.90
2023-02-23T06:04:33.834Z,6.90
2023-02-23T06:07:00.972Z,6.90
2023-02-23T06:09:28.119Z,6.90
2023-02-23T06:11:55.271Z,6.80
2023-02-23T06:14:22.401Z,6.80
2023-02-23T06:16:49.527Z,6.90
2023-02-23T06:19:16.796Z,6.90
2023-02-23T06:21:43.813Z,6.90
2023-02-23T06:24:12.362Z,6.90
2023-02-23T06:26:39.621Z,6.80
2023-02-23T06:29:06.682Z,6.80
2023-02-23T06:31:33.907Z,6.90
2023-02-23T06:34:01.070Z,6.90
2023-02-23T06:36:28.514Z,6.90
2023-02-23T06:38:59.743Z,6.90
2023-02-23T06:41:27.295Z,6.90
2023-02-23T06:43:54.416Z,6.90
2023-02-23T06:46:22.174Z,6.90
2023-02-23T06:48:49.327Z,6.90
2023-02-23T06:51:16.472Z,6.90
2023-02-23T06:53:43.514Z,6.90
2023-02-23T06:56:12.447Z,7.00
2023-02-23T06:58:40.936Z,7.00
2023-02-23T07:01:08.104Z,7.00
2023-02-23T07:03:35.280Z,7.00
2023-02-23T07:06:05.801Z,7.00
2023-02-23T07:08:34.741Z,7.00
2023-02-23T07:11:14.081Z,7.00
2023-02-23T07:13:42.625Z,7.00
2023-02-23T07:16:10.011Z,7.10
2023-02-23T07:18:37.165Z,7.10
2023-02-23T07:21:04.498Z,7.10
2023-02-23T07:23:31.958Z,7.10
2023-02-23T07:26:01.078Z,7.10
2023-02-23T07:28:28.946Z,7.20
2023-02-23T07:30:59.374Z,7.10
2023-02-23T07:33:26.696Z,7.20
2023-02-23T07:35:53.751Z,7.20
2023-02-23T07:38:20.876Z,7.20
2023-02-23T07:40:50.620Z,7.20
2023-02-23T07:43:17.827Z,7.30
2023-02-23T07:45:46.571Z,7.40
2023-02-23T07:48:14.129Z,7.30
2023-02-23T07:50:42.538Z,7.40
2023-02-23T07:53:12.636Z,7.40
2023-02-23T07:55:41.261Z,7.40
2023-02-23T07:58:09.045Z,7.50
2023-02-23T08:00:40.156Z,7.40
2023-02-23T08:03:07.905Z,7.50
2023-02-23T08:05:36.358Z,7.50
2023-02-23T08:08:03.560Z,7.50
2023-02-23T08:10:31.068Z,7.60
2023-02-23T08:12:58.739Z,7.60
2023-02-23T08:15:25.877Z,7.70
2023-02-23T08:17:53.005Z,7.70
2023-02-23T08:20:20.253Z,7.80
2023-02-23T08:22:49.930Z,7.80
2023-02-23T08:25:18.122Z,7.90
2023-02-23T08:27:45.709Z,8.00
2023-02-23T08:30:14.399Z,7.90
2023-02-23T08:32:42.388Z,8.00
2023-02-23T08:35:10.900Z,8.00
2023-02-23T08:37:37.973Z,8.00
2023-02-23T08:40:05.936Z,8.10
2023-02-23T08:42:33.091Z,8.10
2023-02-23T08:45:01.549Z,8.10
2023-02-23T08:47:30.006Z,8.20
2023-02-23T08:49:57.123Z,8.20
2023-02-23T08:52:25.469Z,8.10
2023-02-23T08:54:52.695Z,8.60
2023-02-23T08:57:20.050Z,8.20
2023-02-23T08:59:47.672Z,8.20
2023-02-23T09:02:15.495Z,8.20
2023-02-23T09:04:43.066Z,8.30
2023-02-23T09:07:14.886Z,8.40
2023-02-23T09:09:41.979Z,8.40
2023-02-23T09:12:09.171Z,8.50
2023-02-23T09:14:36.897Z,8.50
2023-02-23T09:17:04.559Z,8.50
2023-02-23T09:19:31.815Z,8.60
2023-02-23T09:21:58.935Z,8.60
2023-02-23T09:24:26.189Z,8.70
2023-02-23T09:26:53.881Z,8.70
2023-02-23T09:29:21.257Z,8.90
2023-02-23T09:31:48.444Z,8.90
2023-02-23T09:34:15.699Z,8.90
2023-02-23T09:36:42.708Z,9.00
2023-02-23T09:39:09.838Z,9.00
2023-02-23T09:42:08.498Z,8.20
2023-02-23T09:44:50.919Z,9.00
2023-02-23T09:47:21.274Z,9.10
2023-02-23T09:49:50.187Z,9.10
2023-02-23T09:52:22.449Z,9.20
2023-02-23T09:54:49.919Z,9.20
2023-02-23T09:57:34.006Z,9.30
2023-02-23T10:00:01.208Z,9.30
2023-02-23T10:02:39.891Z,9.40
2023-02-23T10:05:12.509Z,9.40
2023-02-23T10:07:42.521Z,9.40
2023-02-23T10:10:28.041Z,9.50
2023-02-23T10:13:22.351Z,9.50
2023-02-23T10:15:56.083Z,9.50
2023-02-23T10:18:50.353Z,9.50
2023-02-23T10:21:40.343Z,9.60
2023-02-23T10:24:11.744Z,9.70
2023-02-23T10:26:49.826Z,9.80
2023-02-23T10:29:29.064Z,9.90
2023-02-23T10:32:33.823Z,9.90
2023-02-23T10:35:01.604Z,9.90
2023-02-23T10:37:28.789Z,9.90
2023-02-23T10:39:55.938Z,10.00
2023-02-23T10:42:29.217Z,10.00
2023-02-23T10:44:58.930Z,10.00
2023-02-23T10:47:33.421Z,10.00
2023-02-23T10:50:01.067Z,10.00
2023-02-23T10:52:41.873Z,10.00
2023-02-23T10:55:27.417Z,10.50
2023-02-23T10:58:19.189Z,10.20
2023-02-23T11:01:06.819Z,10.20
2023-02-23T11:03:48.344Z,10.20
2023-02-23T11:06:36.135Z,10.20
2023-02-23T11:09:43.742Z,10.30
2023-02-23T11:12:25.519Z,10.40
2023-02-23T11:14:55.062Z,10.40
2023-02-23T11:17:37.030Z,10.30
2023-02-23T11:20:18.552Z,10.40
2023-02-23T11:22:46.244Z,10.50
2023-02-23T11:25:29.659Z,10.50
2023-02-23T11:27:58.289Z,10.60
2023-02-23T11:30:34.473Z,10.60
2023-02-23T11:33:10.750Z,10.60
2023-02-23T11:35:39.465Z,10.60
2023-02-23T11:38:24.709Z,10.60
2023-02-23T11:41:07.350Z,10.60
2023-02-23T11:43:36.249Z,10.60
2023-02-23T11:46:04.237Z,10.50
2023-02-23T11:48:55.278Z,10.50
2023-02-23T11:51:33.726Z,10.50
2023-02-23T11:54:04.055Z,10.40
2023-02-23T11:56:34.655Z,10.50
2023-02-23T11:59:14.029Z,10.50
2023-02-23T12:01:52.937Z,10.50
2023-02-23T12:04:41.409Z,10.40
2023-02-23T12:07:41.924Z,10.40
2023-02-23T12:10:21.426Z,10.40
2023-02-23T12:12:57.320Z,10.40
2023-02-23T12:15:34.894Z,10.40
2023-02-23T12:18:11.885Z,10.30
2023-02-23T12:20:44.119Z,10.30
2023-02-23T12:23:15.890Z,10.40
2023-02-23T12:25:51.779Z,10.30
2023-02-23T12:28:36.568Z,9.40
2023-02-23T12:31:42.610Z,10.40
2023-02-23T12:34:15.837Z,10.50
2023-02-23T12:36:50.550Z,10.50
2023-02-23T12:39:33.482Z,10.60
2023-02-23T12:42:06.403Z,10.70
2023-02-23T12:44:43.660Z,10.80
2023-02-23T12:47:44.763Z,10.70
2023-02-23T12:50:33.870Z,10.80
2023-02-23T12:53:12.613Z,10.90
2023-02-23T12:55:54.750Z,10.90
2023-02-23T12:58:21.840Z,10.90
2023-02-23T13:00:55.756Z,10.90
2023-02-23T13:03:37.270Z,10.90
2023-02-23T13:06:47.757Z,11.00
2023-02-23T13:09:27.036Z,11.00
2023-02-23T13:12:08.228Z,10.90
2023-02-23T13:14:48.277Z,10.90
2023-02-23T13:17:36.979Z,10.90
2023-02-23T13:20:20.730Z,10.80
2023-02-23T13:23:01.451Z,10.80
2023-02-23T13:25:52.174Z,10.90
2023-02-23T13:28:28.315Z,10.80
2023-02-23T13:30:57.460Z,10.90
2023-02-23T13:33:43.280Z,10.80
2023-02-23T13:36:13.183Z,10.80
2023-02-23T13:39:01.304Z,10.80
2023-02-23T13:41:48.285Z,10.90
2023-02-23T13:44:49.624Z,10.80
2023-02-23T13:47:46.038Z,10.00
2023-02-23T13:50:47.470Z,10.30
2023-02-23T13:53:34.906Z,10.80
2023-02-23T13:56:10.601Z,10.80
2023-02-23T13:58:45.676Z,10.70
2023-02-23T14:01:36.991Z,10.80
2023-02-23T14:04:14.520Z,10.80
2023-02-23T14:06:58.454Z,10.70
2023-02-23T14:09:31.928Z,10.70
2023-02-23T14:12:11.416Z,10.60
2023-02-23T14:14:42.381Z,10.70
2023-02-23T14:17:35.443Z,10.70
2023-02-23T14:20:29.695Z,10.70
2023-02-23T14:23:22.160Z,11.00
2023-02-23T14:26:15.365Z,10.70
2023-02-23T14:28:47.029Z,10.60
2023-02-23T14:31:16.090Z,10.60
2023-02-23T14:33:43.343Z,10.70
2023-02-23T14:36:22.705Z,10.70
2023-02-23T14:39:26.010Z,10.70
2023-02-23T14:41:54.284Z,10.80
2023-02-23T14:44:30.896Z,10.80
2023-02-23T14:47:19.019Z,10.90
2023-02-23T14:49:50.430Z,10.80
2023-02-23T14:52:29.941Z,10.80
2023-02-23T14:55:28.980Z,10.90
2023-02-23T14:57:58.236Z,10.90
2023-02-23T15:00:29.028Z,10.90
2023-02-23T15:03:16.806Z,10.80
2023-02-23T15:05:59.806Z,10.80
2023-02-23T15:08:31.824Z,10.80
2023-02-23T15:11:11.551Z,10.80
2023-02-23T15:13:42.714Z,10.50
2023-02-23T15:16:29.511Z,10.70
2023-02-23T15:19:35.085Z,10.60
2023-02-23T15:22:06.134Z,10.50
2023-02-23T15:24:47.705Z,10.50
2023-02-23T15:27:24.783Z,10.50
2023-02-23T15:29:52.418Z,10.40
2023-02-23T15:32:24.989Z,10.30
2023-02-23T15:35:03.728Z,10.30
2023-02-23T15:37:40.255Z,10.20
2023-02-23T15:40:16.576Z,10.20
2023-02-23T15:42:51.568Z,10.10
2023-02-23T15:45:36.549Z,10.10
2023-02-23T15:48:21.442Z,10.00
2023-02-23T15:50:53.932Z,10.00
2023-02-23T15:53:24.589Z,9.90
2023-02-23T15:55:56.082Z,9.90
2023-02-23T15:58:31.367Z,9.80
2023-02-23T16:01:08.985Z,9.80
2023-02-23T16:03:39.387Z,9.70
2023-02-23T16:06:21.396Z,9.70
2023-02-23T16:09:02.498Z,9.60
2023-02-23T16:11:37.907Z,9.60
2023-02-23T16:14:06.927Z,9.50
2023-02-23T16:16:35.943Z,9.50
2023-02-23T16:19:05.157Z,9.50
2023-02-23T16:21:33.268Z,9.40
2023-02-23T16:24:06.639Z,9.40
2023-02-23T16:26:44.262Z,9.40
2023-02-23T16:29:19.957Z,9.40
2023-02-23T16:31:52.193Z,9.30
2023-02-23T16:34:34.703Z,9.30
2023-02-23T16:37:26.303Z,9.30
2023-02-23T16:39:56.086Z,9.30
2023-02-23T16:42:30.897Z,9.30
2023-02-23T16:45:00.765Z,9.30
2023-02-23T16:47:41.171Z,9.20
2023-02-23T16:50:20.304Z,9.20
2023-02-23T16:52:53.563Z,9.20
2023-02-23T16:55:26.173Z,9.20
2023-02-23T16:58:02.729Z,9.20
2023-02-23T17:00:33.316Z,9.10
2023-02-23T17:03:01.062Z,9.10
2023-02-23T17:05:29.340Z,9.10
2023-02-23T17:07:59.331Z,9.10
2023-02-23T17:10:31.856Z,9.10
2023-02-23T17:13:03.612Z,9.10
2023-02-23T17:15:35.172Z,9.10
2023-02-23T17:18:03.996Z,9.00
2023-02-23T17:20:33.048Z,9.00
2023-02-23T17:23:02.151Z,9.00
2023-02-23T17:25:30.269Z,9.00
2023-02-23T17:28:00.263Z,9.00
2023-02-23T17:30:30.305Z,9.00
2023-02-23T17:32:59.267Z,8.90
2023-02-23T17:35:27.697Z,8.90
2023-02-23T17:37:55.819Z,8.90
2023-02-23T17:40:35.008Z,10.10
2023-02-23T17:43:06.589Z,8.90
2023-02-23T17:45:35.496Z,8.90
2023-02-23T17:48:03.513Z,8.90
2023-02-23T17:50:31.236Z,8.90
2023-02-23T17:52:59.343Z,8.90
2023-02-23T17:55:27.232Z,8.90
2023-02-23T17:57:55.287Z,8.80
2023-02-23T18:00:24.335Z,8.80
2023-02-23T18:02:52.585Z,8.80
2023-02-23T18:05:22.028Z,8.80
2023-02-23T18:07:51.149Z,8.80
2023-02-23T18:10:22.022Z,8.80
2023-02-23T18:12:52.554Z,8.80
2023-02-23T18:15:21.976Z,8.70
2023-02-23T18:17:50.948Z,8.70
2023-02-23T18:20:19.157Z,8.70
2023-02-23T18:22:47.312Z,8.70
2023-02-23T18:25:44.709Z,8.70
2023-02-23T18:28:14.040Z,8.70
2023-02-23T18:30:42.660Z,8.60
2023-02-23T18:33:11.919Z,8.60
2023-02-23T18:35:46.808Z,8.60
2023-02-23T18:38:16.972Z,8.60
2023-02-23T18:40:45.816Z,8.60
2023-02-23T18:43:15.902Z,8.50
2023-02-23T18:45:44.373Z,8.50
2023-02-23T18:48:13.996Z,8.50
2023-02-23T18:50:42.274Z,8.50
2023-02-23T18:53:11.413Z,8.50
2023-02-23T18:55:40.434Z,8.50
2023-02-23T18:58:09.008Z,8.50
2023-02-23T19:00:43.243Z,8.50
2023-02-23T19:03:13.528Z,8.50
2023-02-23T19:05:53.479Z,8.50
2023-02-23T19:08:22.492Z,8.50
2023-02-23T19:10:53.100Z,8.50
2023-02-23T19:13:23.195Z,8.50
2023-02-23T19:15:53.997Z,8.50
2023-02-23T19:18:24.528Z,8.50
2023-02-23T19:20:54.197Z,8.50
2023-02-23T19:23:22.781Z,8.50
2023-02-23T19:25:52.145Z,8.40
2023-02-23T19:28:20.868Z,8.40
2023-02-23T19:30:50.721Z,8.40
2023-02-23T19:33:20.801Z,8.40
2023-02-23T19:35:49.504Z,8.40
2023-02-23T19:38:17.869Z,8.30
2023-02-23T19:40:47.410Z,8.30
2023-02-23T19:43:15.358Z,8.30
2023-02-23T19:45:46.811Z,8.30
2023-02-23T19:48:17.387Z,8.30
2023-02-23T19:50:50.059Z,8.20
2023-02-23T19:53:18.250Z,8.20
2023-02-23T19:55:48.043Z,8.20
2023-02-23T19:58:17.334Z,8.10
2023-02-23T20:00:47.664Z,8.10
2023-02-23T20:03:20.479Z,8.10
2023-02-23T20:05:49.717Z,8.00
2023-02-23T20:08:19.551Z,8.00
2023-02-23T20:10:47.610Z,8.00
2023-02-23T20:13:16.730Z,8.00
2023-02-23T20:15:45.892Z,8.00
2023-02-23T20:18:16.624Z,8.00
2023-02-23T20:20:47.345Z,7.90
2023-02-23T20:23:17.545Z,7.90
2023-02-23T20:25:46.268Z,7.90
2023-02-23T20:28:14.210Z,7.90
2023-02-23T20:30:47.803Z,7.90
2023-02-23T20:33:18.957Z,7.90
2023-02-23T20:35:47.207Z,7.90
2023-02-23T20:38:16.848Z,7.80
2023-02-23T20:40:45.562Z,7.80
2023-02-23T20:43:13.446Z,7.80
2023-02-23T20:45:42.212Z,7.80
2023-02-23T20:48:10.416Z,7.80
2023-02-23T20:50:39.086Z,7.80
2023-02-23T20:53:08.865Z,7.80
2023-02-23T20:55:37.500Z,7.80
2023-02-23T20:58:07.095Z,7.80
2023-02-23T21:00:35.126Z,7.80
2023-02-23T21:03:05.138Z,7.80
2023-02-23T21:05:39.237Z,7.80
2023-02-23T21:08:09.171Z,7.80
2023-02-23T21:10:39.638Z,7.80
2023-02-23T21:13:11.416Z,7.70
2023-02-23T21:15:41.467Z,7.80
2023-02-23T21:18:10.875Z,7.80
2023-02-23T21:20:41.755Z,7.80
2023-02-23T21:23:10.511Z,7.80
2023-02-23T21:25:39.218Z,7.80
2023-02-23T21:28:07.365Z,7.80
2023-02-23T21:30:34.828Z,7.80
2023-02-23T21:33:04.425Z,7.70
2023-02-23T21:35:31.836Z,7.70
2023-02-23T21:37:59.481Z,7.70
2023-02-23T21:40:27.204Z,7.70
2023-02-23T21:42:54.847Z,7.70
2023-02-23T21:45:22.911Z,7.70
2023-02-23T21:47:50.462Z,7.70
2023-02-23T21:50:19.617Z,7.70
2023-02-23T21:52:48.861Z,7.70
2023-02-23T21:55:24.634Z,7.70
2023-02-23T21:57:52.433Z,7.70
2023-02-23T22:00:21.171Z,7.70
2023-02-23T22:02:49.355Z,7.70
2023-02-23T22:05:18.305Z,7.70
2023-02-23T22:07:54.635Z,7.70
2023-02-23T22:10:24.651Z,7.70
2023-02-23T22:12:56.083Z,7.70
2023-02-23T22:15:27.823Z,7.70
2023-02-23T22:17:56.036Z,7.70
2023-02-23T22:20:23.307Z,7.70
2023-02-23T22:22:53.088Z,7.70
2023-02-23T22:25:20.854Z,7.70
2023-02-23T22:27:48.288Z,7.70
2023-02-23T22:30:16.135Z,7.70
2023-02-23T22:32:44.004Z,7.70
2023-02-23T22:35:11.354Z,7.70
2023-02-23T22:37:39.205Z,7.60
2023-02-23T22:40:16.892Z,7.70
2023-02-23T22:42:48.324Z,7.70
2023-02-23T22:45:16.401Z,7.70
2023-02-23T22:47:43.616Z,7.70
2023-02-23T22:50:15.619Z,7.70
2023-02-23T22:52:43.179Z,7.60
2023-02-23T22:55:11.280Z,7.60
2023-02-23T22:57:39.999Z,7.70
2023-02-23T23:00:12.690Z,7.70
2023-02-23T23:02:39.790Z,7.70
2023-02-23T23:05:07.594Z,7.70
2023-02-23T23:07:34.744Z,7.60
2023-02-23T23:10:05.837Z,7.60
2023-02-23T23:12:34.663Z,7.60
2023-02-23T23:15:03.483Z,7.60
2023-02-23T23:17:31.495Z,7.60
2023-02-23T23:20:00.425Z,7.60
2023-02-23T23:22:28.162Z,7.60
2023-02-23T23:24:57.143Z,7.60
2023-02-23T23:27:24.892Z,7.60
2023-02-23T23:29:51.932Z,7.60
2023-02-23T23:32:19.438Z,7.60
2023-02-23T23:34:48.234Z,7.60
2023-02-23T23:37:17.273Z,7.60
2023-02-23T23:39:45.103Z,7.60
2023-02-23T23:42:12.322Z,7.60
2023-02-23T23:44:39.505Z,7.60
2023-02-23T23:47:06.586Z,7.60
2023-02-23T23:49:39.244Z,7.60
2023-02-23T23:52:06.707Z,7.60
2023-02-23T23:54:39.341Z,7.60
2023-02-23T23:57:06.780Z,7.60
2023-02-23T23:59:35.500Z,7.60
